Time;durP1;ratioP1;P1;durP2;ratioP2;P2;SDS_P1;SDS_P2;PMS_P1;PMS_P2;Temp;Humidity;BMP_temperature;BMP_pressure;BME280_temperature;BME280_humidity;BME280_pressure;Samples;Min_cycle;Max_cycle;Signal;HPM_P1;HPM_P2
2022/08/05 00:04:12;;;;;;;5.35;2.60;;;;;;;26.63;33.65;99748.84;7630343;32;37025;-74
2022/08/05 00:08:28;;;;;;;3.45;2.42;;;;;;;26.65;33.73;99737.25;7630433;32;39388;-76
2022/08/05 00:12:50;;;;;;;4.57;2.40;;;;;;;26.54;33.89;99743.50;7630221;32;40589;-76
2022/08/05 00:17:11;;;;;;;4.95;2.53;;;;;;;26.66;33.58;99744.47;7629767;32;37994;-75
2022/08/05 00:21:43;;;;;;;8.32;2.85;;;;;;;26.58;33.63;99738.78;7630031;32;37123;-75
2022/08/05 00:25:59;;;;;;;3.22;2.33;;;;;;;26.56;33.64;99741.16;7630021;32;39549;-75
2022/08/05 00:30:16;;;;;;;7.85;2.85;;;;;;;26.54;33.74;99748.31;7629855;32;40936;-76
2022/08/05 00:34:32;;;;;;;4.28;2.50;;;;;;;26.68;33.45;99736.50;7629522;32;38065;-75
2022/08/05 00:39:08;;;;;;;4.87;2.60;;;;;;;26.59;33.46;99737.56;7629243;32;37762;-76
2022/08/05 00:43:30;;;;;;;4.82;2.55;;;;;;;26.58;33.36;99733.19;7632167;32;40083;-75
2022/08/05 00:48:04;;;;;;;5.93;2.40;;;;;;;26.56;33.42;99738.38;7632935;32;39575;-77
2022/08/05 00:52:21;;;;;;;3.78;2.28;;;;;;;26.36;34.07;99737.72;7633156;32;39186;-75
2022/08/05 00:56:43;;;;;;;4.27;2.43;;;;;;;26.43;33.95;99742.59;7633430;32;37266;-77
2022/08/05 01:01:06;;;;;;;6.15;2.80;;;;;;;26.49;33.76;99729.06;7633374;32;41066;-77
2022/08/05 01:05:24;;;;;;;4.70;2.80;;;;;;;26.52;33.73;99729.13;7633007;32;40086;-75
2022/08/05 01:09:42;;;;;;;4.10;2.50;;;;;;;26.38;33.85;99717.78;7632461;32;38743;-76
2022/08/05 01:14:33;;;;;;;4.72;2.67;;;;;;;26.29;34.04;99725.66;7632524;32;37089;-76
2022/08/05 01:18:53;;;;;;;5.93;2.90;;;;;;;26.29;34.04;99720.88;7633063;32;39331;-75
2022/08/05 01:23:30;;;;;;;3.70;2.40;;;;;;;26.21;34.15;99721.94;7619864;32;40898;-72
2022/08/05 01:28:09;;;;;;;3.83;2.40;;;;;;;26.10;34.53;99721.81;7632970;32;38704;-72
2022/08/05 01:32:26;;;;;;;6.62;2.67;;;;;;;26.12;34.68;99733.41;7632935;32;37752;-75
2022/08/05 01:36:45;;;;;;;5.05;2.55;;;;;;;26.02;34.80;99728.47;7619991;32;37556;-78
2022/08/05 01:41:03;;;;;;;4.15;2.30;;;;;;;26.08;34.36;99732.56;7619714;32;41035;-76
2022/08/05 01:45:22;;;;;;;5.00;2.78;;;;;;;26.04;34.43;99726.13;7619145;32;38764;-76
2022/08/05 01:49:40;;;;;;;4.32;2.37;;;;;;;26.02;34.44;99734.87;7632823;32;37859;-77
2022/08/05 01:54:18;;;;;;;4.22;2.55;;;;;;;25.91;34.72;99728.31;7620654;32;39657;-76
2022/08/05 01:58:41;;;;;;;5.15;2.00;;;;;;;25.97;34.48;99728.81;7620144;32;40802;-76
2022/08/05 02:03:05;;;;;;;6.32;2.40;;;;;;;25.95;34.63;99729.19;7618973;32;38250;-77
2022/08/05 02:07:41;;;;;;;5.57;2.60;;;;;;;25.98;34.65;99727.66;7621062;32;38034;-76
2022/08/05 02:12:17;;;;;;;4.57;2.75;;;;;;;25.78;34.76;99722.12;7620943;32;40220;-77
2022/08/05 02:16:47;;;;;;;3.70;2.15;;;;;;;25.69;34.87;99721.59;7631310;32;40762;-77
2022/08/05 02:21:20;;;;;;;3.78;2.50;;;;;;;25.69;35.06;99732.78;7631932;32;39172;-76
2022/08/05 02:25:38;;;;;;;5.28;2.87;;;;;;;25.42;38.30;99732.78;7618833;32;37157;-76
2022/08/05 02:30:09;;;;;;;5.20;3.22;;;;;;;25.45;40.88;99731.19;7620319;32;40164;-75
2022/08/05 02:34:28;;;;;;;6.00;2.78;;;;;;;25.06;43.45;99732.13;7632175;32;40800;-75
2022/08/05 02:38:47;;;;;;;7.28;3.03;;;;;;;24.70;43.99;99733.47;7619341;32;38704;-75
2022/08/05 02:43:12;;;;;;;4.30;2.75;;;;;;;24.57;43.16;99723.62;7619383;32;37953;-75
2022/08/05 02:47:32;;;;;;;3.80;2.40;;;;;;;24.51;43.32;99717.53;7617152;32;38439;-76
2022/08/05 02:52:15;;;;;;;3.10;2.47;;;;;;;24.32;43.51;99724.72;7620339;32;40850;-76
2022/08/05 02:56:45;;;;;;;2.95;2.67;;;;;;;24.32;42.65;99719.16;7620232;32;38823;-77
2022/08/05 03:01:03;;;;;;;4.93;3.10;;;;;;;23.96;43.06;99717.59;7632221;32;34957;-76
2022/08/05 03:05:19;;;;;;;5.97;2.95;;;;;;;23.90;44.65;99721.81;7630426;32;39464;-75
2022/08/05 03:09:56;;;;;;;4.10;2.90;;;;;;;23.81;44.28;99719.22;7631234;32;41017;-75
2022/08/05 03:14:12;;;;;;;5.68;3.40;;;;;;;23.66;45.56;99720.84;7630818;32;37885;-75
2022/08/05 03:18:29;;;;;;;5.25;3.12;;;;;;;23.72;46.02;99708.28;7631032;32;37904;-76
2022/08/05 03:22:45;;;;;;;4.50;2.90;;;;;;;23.67;46.33;99716.09;7631304;32;40132;-75
2022/08/05 03:27:05;;;;;;;6.03;3.20;;;;;;;23.57;46.70;99712.69;7631403;32;40009;-75
2022/08/05 03:31:22;;;;;;;4.32;2.55;;;;;;;23.36;47.07;99704.63;7631249;32;38830;-76
2022/08/05 03:35:58;;;;;;;5.03;3.37;;;;;;;23.30;46.80;99705.28;7630930;32;37356;-77
2022/08/05 03:40:14;;;;;;;4.87;2.87;;;;;;;23.33;46.05;99701.78;7631143;32;39361;-77
2022/08/05 03:44:39;;;;;;;5.72;3.03;;;;;;;23.21;47.30;99706.25;7630175;32;40960;-76
2022/08/05 03:48:55;;;;;;;4.30;2.90;;;;;;;23.08;47.78;99701.13;7630556;32;37939;-76
2022/08/05 03:53:20;;;;;;;5.22;2.90;;;;;;;23.08;48.16;99701.97;7630753;32;37132;-74
2022/08/05 03:57:57;;;;;;;5.45;3.17;;;;;;;23.42;46.04;99699.59;7620052;32;39708;-73
2022/08/05 04:02:14;;;;;;;5.43;3.30;;;;;;;23.39;48.58;99701.16;7630556;32;39971;-73
2022/08/05 04:06:36;;;;;;;5.82;3.10;;;;;;;23.52;47.67;99710.19;7617096;32;37991;-73
2022/08/05 04:10:52;;;;;;;6.05;2.80;;;;;;;23.90;45.64;99710.69;7630375;32;37567;-73
2022/08/05 04:15:10;;;;;;;4.15;2.62;;;;;;;24.22;42.41;99713.34;7616727;32;40194;-72
2022/08/05 04:19:40;;;;;;;4.93;2.67;;;;;;;24.09;41.23;99709.88;7620504;32;40065;-72
2022/08/05 04:23:59;;;;;;;3.55;2.45;;;;;;;24.34;40.18;99708.44;7615570;32;37567;-72
2022/08/05 04:28:21;;;;;;;3.37;2.47;;;;;;;24.32;39.58;99716.34;7582629;32;37286;-72
2022/08/05 04:32:46;;;;;;;5.40;2.75;;;;;;;24.63;38.59;99705.44;7569403;33;39617;-72
2022/08/05 04:37:03;;;;;;;4.82;2.60;;;;;;;24.73;38.20;99704.81;7575229;32;39994;-72
2022/08/05 04:41:19;;;;;;;3.75;2.62;;;;;;;24.86;38.00;99703.47;7633374;32;37918;-73
2022/08/05 04:45:49;;;;;;;4.12;2.80;;;;;;;25.05;37.50;99704.59;7633441;32;37094;-72
2022/08/05 04:50:10;;;;;;;4.95;2.90;;;;;;;25.10;37.18;99707.09;7633458;32;39408;-72
2022/08/05 04:54:26;;;;;;;6.28;2.87;;;;;;;25.18;37.21;99697.66;7630952;32;40930;-73
2022/08/05 04:58:43;;;;;;;4.80;2.65;;;;;;;25.18;37.24;99702.41;7610004;32;38653;-72
2022/08/05 05:02:59;;;;;;;4.25;2.60;;;;;;;25.24;37.29;99712.91;7609255;32;37231;-71
2022/08/05 05:07:18;;;;;;;4.18;2.87;;;;;;;25.31;37.23;99706.66;7631203;32;39409;-72
2022/08/05 05:11:38;;;;;;;4.57;2.70;;;;;;;25.52;36.65;99708.97;7606601;32;40144;-71
2022/08/05 05:16:03;;;;;;;6.82;2.90;;;;;;;25.62;36.57;99711.13;7606573;32;39475;-71
2022/08/05 05:20:21;;;;;;;4.45;2.72;;;;;;;25.61;36.56;99708.72;7594078;32;37443;-71
2022/08/05 05:24:43;;;;;;;5.10;2.72;;;;;;;25.83;36.13;99698.66;7633190;32;39340;-72
2022/08/05 05:29:14;;;;;;;3.67;2.60;;;;;;;25.73;36.11;99694.53;7620226;32;39714;-72
2022/08/05 05:33:30;;;;;;;5.95;2.42;;;;;;;25.76;36.34;99704.97;7632800;32;38507;-72
2022/08/05 05:38:06;;;;;;;6.35;2.55;;;;;;;25.92;35.94;99698.38;7632335;32;37160;-71
2022/08/05 05:42:27;;;;;;;4.55;2.40;;;;;;;26.05;35.30;99691.44;7632719;32;40547;-71
2022/08/05 05:46:43;;;;;;;2.75;2.33;;;;;;;26.21;34.97;99692.00;7632894;32;40059;-72
2022/08/05 05:51:02;;;;;;;3.40;2.10;;;;;;;26.21;34.84;99694.00;7632659;32;38021;-72
2022/08/05 05:55:30;;;;;;;6.82;2.50;;;;;;;26.49;34.51;99695.53;7631286;32;37131;-73
2022/08/05 06:00:10;;;;;;;5.35;2.28;;;;;;;26.48;34.60;99693.94;7605840;32;40689;-73
2022/08/05 06:04:26;;;;;;;7.12;2.55;;;;;;;26.84;34.34;99694.31;7606552;32;40165;-73
2022/08/05 06:08:43;;;;;;;5.97;2.30;;;;;;;26.91;33.81;99694.41;7625660;32;38788;-72
2022/08/05 06:13:04;;;;;;;3.28;2.28;;;;;;;27.11;33.34;99692.19;7631827;32;36732;-72
2022/08/05 06:17:20;;;;;;;9.77;2.15;;;;;;;27.18;32.51;99692.25;7632300;32;39191;-72
2022/08/05 06:21:46;;;;;;;8.73;2.62;;;;;;;27.31;32.12;99684.41;7632199;32;39993;-72
2022/08/05 06:26:04;;;;;;;4.93;2.12;;;;;;;27.45;32.50;99678.09;7630058;32;38770;-73
2022/08/05 06:30:28;;;;;;;3.08;2.08;;;;;;;27.44;31.98;99687.66;7631058;32;37334;-74
2022/08/05 06:34:45;;;;;;;3.10;2.10;;;;;;;27.51;31.67;99688.53;7632052;32;40189;-73
2022/08/05 06:39:01;;;;;;;2.53;2.17;;;;;;;27.76;30.99;99695.50;7631739;32;41210;-75
2022/08/05 06:43:18;;;;;;;5.50;1.70;;;;;;;27.72;31.17;99684.28;7618565;32;38496;-75
2022/08/05 06:47:54;;;;;;;5.40;2.00;;;;;;;28.13;30.86;99694.50;7631384;32;37362;-73
2022/08/05 06:52:30;;;;;;;5.00;2.10;;;;;;;28.27;30.28;99688.97;7631542;32;39707;-73
2022/08/05 06:56:53;;;;;;;5.75;1.67;;;;;;;28.56;30.19;99689.06;7631777;32;39952;-73
2022/08/05 07:01:29;;;;;;;4.78;1.90;;;;;;;28.70;29.84;99686.31;7631598;32;38231;-72
2022/08/05 07:05:47;;;;;;;2.70;1.90;;;;;;;28.65;29.06;99681.09;7631838;32;35990;-73
2022/08/05 07:10:05;;;;;;;6.07;2.17;;;;;;;28.70;29.01;99686.31;7631592;32;40196;-74
2022/08/05 07:18:59;;;;;;;2.28;2.00;;;;;;;29.35;28.94;99684.38;7630855;32;37988;-76
2022/08/05 07:23:16;;;;;;;5.40;2.30;;;;;;;29.48;29.16;99693.19;7631253;32;37202;-77
2022/08/05 07:27:41;;;;;;;8.07;2.33;;;;;;;29.70;29.33;99677.09;7631223;32;40298;-74
2022/08/05 07:32:17;;;;;;;3.92;1.92;;;;;;;29.84;30.12;99681.91;7631121;32;40061;-74
2022/08/05 07:36:41;;;;;;;6.82;2.53;;;;;;;29.96;30.03;99680.69;7631063;32;37891;-74
2022/08/05 07:40:57;;;;;;;7.30;2.37;;;;;;;30.22;29.16;99670.94;7631082;32;37157;-77
2022/08/05 07:45:19;;;;;;;3.50;2.00;;;;;;;30.08;29.69;99673.78;7631239;32;39433;-75
2022/08/05 07:49:55;;;;;;;3.15;2.08;;;;;;;30.66;28.99;99663.88;7630294;32;40278;-74
2022/08/05 07:54:13;;;;;;;8.30;2.40;;;;;;;30.73;28.60;99670.66;7633156;32;37979;-77
2022/08/05 07:58:30;;;;;;;5.37;2.20;;;;;;;30.44;29.38;99673.66;7607926;32;37491;-79
2022/08/05 08:03:12;;;;;;;4.10;2.22;;;;;;;31.02;29.15;99662.84;7607656;32;39800;-77
2022/08/05 08:07:31;;;;;;;2.72;1.98;;;;;;;31.48;27.86;99667.25;7607683;32;40064;-77
2022/08/05 08:12:07;;;;;;;5.65;2.87;;;;;;;31.84;27.20;99661.28;7607319;32;38126;-77
2022/08/05 08:16:44;;;;;;;5.43;2.45;;;;;;;31.94;26.70;99659.53;7607251;32;37360;-78
2022/08/05 08:21:06;;;;;;;7.37;2.45;;;;;;;32.07;27.05;99657.00;7607553;32;39082;-78
2022/08/05 08:25:31;;;;;;;6.43;2.42;;;;;;;32.31;25.75;99655.88;7617738;32;39996;-74
2022/08/05 08:30:10;;;;;;;3.58;2.10;;;;;;;32.62;25.51;99655.06;7608276;32;39136;-75
2022/08/05 08:34:46;;;;;;;3.33;2.00;;;;;;;32.68;25.05;99661.81;7633137;32;38358;-77
2022/08/05 08:39:02;;;;;;;4.72;2.20;;;;;;;32.41;24.95;99659.78;7633419;32;39392;-76
2022/08/05 08:43:20;;;;;;;5.75;2.30;;;;;;;32.89;25.08;99655.03;7633282;32;40134;-76
2022/08/05 08:47:57;;;;;;;5.22;2.10;;;;;;;33.26;24.11;99651.22;7632975;32;38255;-77
2022/08/05 08:52:34;;;;;;;4.28;1.87;;;;;;;33.52;23.68;99656.41;7622098;32;38370;-77
2022/08/05 08:56:52;;;;;;;6.10;1.90;;;;;;;33.56;23.80;99657.94;7619936;32;39499;-76
2022/08/05 09:01:12;;;;;;;3.95;2.10;;;;;;;33.88;23.39;99650.91;7633259;32;40787;-76
2022/08/05 09:05:31;;;;;;;5.72;2.00;;;;;;;34.28;23.15;99639.56;7632769;32;38787;-76
2022/08/05 09:10:07;;;;;;;8.98;2.17;;;;;;;34.54;22.85;99639.78;7632787;32;37479;-76
2022/08/05 09:14:24;;;;;;;5.62;1.98;;;;;;;34.45;22.14;99636.78;7633088;32;40117;-76
2022/08/05 09:19:00;;;;;;;5.57;2.28;;;;;;;34.29;23.20;99629.03;7621655;32;39978;-77
2022/08/05 09:23:21;;;;;;;3.87;2.30;;;;;;;34.75;22.73;99622.31;7632770;32;38038;-76
2022/08/05 09:27:41;;;;;;;4.28;2.22;;;;;;;34.94;22.57;99617.00;7633021;32;37342;-75
2022/08/05 09:32:18;;;;;;;8.50;2.40;;;;;;;34.72;21.56;99620.37;7632368;32;39705;-78
2022/08/05 09:36:54;;;;;;;8.07;2.33;;;;;;;35.41;22.00;99610.16;7603775;32;41032;-78
2022/08/05 09:41:14;;;;;;;6.30;2.30;;;;;;;35.38;21.23;99603.34;7632456;32;38756;-78
2022/08/05 09:45:36;;;;;;;4.65;2.30;;;;;;;35.95;20.57;99600.16;7632608;32;37250;-79
2022/08/05 09:50:12;;;;;;;3.77;2.30;;;;;;;36.06;19.91;99604.22;7632377;32;40231;-79
2022/08/05 09:54:34;;;;;;;3.90;2.12;;;;;;;36.05;19.84;99590.53;7632346;32;39894;-78
2022/08/05 09:59:02;;;;;;;4.50;2.37;;;;;;;36.56;19.48;99593.38;7632470;32;38036;-77
2022/08/05 10:03:19;;;;;;;6.87;2.22;;;;;;;37.00;18.69;99576.53;7632421;32;37113;-75
2022/08/05 10:07:49;;;;;;;4.97;2.20;;;;;;;37.08;19.18;99581.94;7632279;32;39361;-76
2022/08/05 10:12:25;;;;;;;5.78;2.30;;;;;;;37.42;18.45;99577.53;7631659;32;40296;-77
2022/08/05 10:16:54;;;;;;;5.68;2.40;;;;;;;37.84;18.78;99572.31;7617360;32;38061;-77
2022/08/05 10:21:14;;;;;;;6.53;2.47;;;;;;;38.25;17.63;99561.00;7631148;32;37130;-75
2022/08/05 10:25:33;;;;;;;5.25;2.35;;;;;;;38.13;16.14;99554.16;7631821;32;39341;-76
2022/08/05 10:29:50;;;;;;;3.87;2.20;;;;;;;38.55;17.11;99562.22;7631223;32;38616;-77
2022/08/05 10:34:27;;;;;;;4.45;2.22;;;;;;;38.55;15.77;99556.53;7631009;32;39150;-76
2022/08/05 10:38:47;;;;;;;4.47;2.20;;;;;;;38.69;16.85;99547.41;7622807;32;37630;-76
2022/08/05 10:43:33;;;;;;;2.58;2.05;;;;;;;39.01;16.78;99535.87;7631727;32;39283;-77
2022/08/05 10:47:51;;;;;;;6.07;2.35;;;;;;;39.18;16.01;99539.25;7631309;32;40846;-78
2022/08/05 10:52:59;;;;;;;10.15;2.22;;;;;;;39.45;15.40;99529.88;7630790;32;38851;-78
2022/08/05 10:57:26;;;;;;;5.45;2.12;;;;;;;39.62;15.40;99527.50;7613092;32;38164;-78
2022/08/05 11:01:47;;;;;;;4.40;2.60;;;;;;;39.55;14.84;99513.56;7631334;32;40129;-78
2022/08/05 11:06:20;;;;;;;2.92;2.08;;;;;;;39.75;14.55;99510.97;7631568;32;40595;-78
2022/08/05 11:10:45;;;;;;;8.23;3.28;;;;;;;39.65;14.40;99514.31;7618912;32;37546;-78
2022/08/05 11:15:17;;;;;;;3.42;2.40;;;;;;;39.38;14.38;99508.19;7631050;32;37045;-77
2022/08/05 11:19:43;;;;;;;6.17;2.10;;;;;;;39.97;14.76;99509.97;7631025;32;40186;-78
2022/08/05 11:24:20;;;;;;;5.15;2.28;;;;;;;39.97;14.54;99505.06;7619981;32;39922;-78
2022/08/05 11:28:53;;;;;;;3.97;2.10;;;;;;;40.15;13.93;99498.47;7629416;32;38018;-78
2022/08/05 11:33:44;;;;;;;10.57;1.95;;;;;;;40.75;14.05;99498.75;7630578;32;36154;-77
2022/08/05 11:38:03;;;;;;;7.55;1.85;;;;;;;40.89;14.13;99488.66;7574788;32;39536;-78
2022/08/05 11:42:40;;;;;;;7.15;2.50;;;;;;;41.07;13.19;99497.09;7630228;32;40298;-78
2022/08/05 11:46:57;;;;;;;3.42;2.22;;;;;;;41.29;13.57;99493.91;7617137;32;37887;-79
2022/08/05 11:51:30;;;;;;;7.12;2.20;;;;;;;41.30;12.20;99500.41;7619378;32;37242;-79
2022/08/05 11:56:04;;;;;;;4.78;2.65;;;;;;;40.66;12.89;99487.41;7630408;32;39324;-77
2022/08/05 12:00:29;;;;;;;3.50;2.10;;;;;;;41.16;12.44;99493.34;7630453;32;40695;-77
2022/08/05 12:04:47;;;;;;;4.55;2.40;;;;;;;41.31;12.27;99486.88;7630766;32;37681;-78
2022/08/05 12:09:17;;;;;;;3.25;2.17;;;;;;;40.38;13.43;99489.66;7630443;32;37142;-78
2022/08/05 12:13:35;;;;;;;2.97;2.03;;;;;;;40.93;13.06;99474.97;7617171;32;40328;-77
2022/08/05 12:18:04;;;;;;;3.35;1.92;;;;;;;41.56;13.16;99480.56;7630104;32;41002;-78
2022/08/05 12:22:28;;;;;;;7.20;1.83;;;;;;;41.37;13.48;99485.72;7629824;32;37575;-78
2022/08/05 12:26:52;;;;;;;6.55;2.10;;;;;;;41.74;12.36;99476.75;7629942;32;37340;-78
2022/08/05 12:31:08;;;;;;;5.53;1.70;;;;;;;42.31;12.14;99475.56;7629957;32;39395;-78
2022/08/05 12:35:24;;;;;;;4.65;2.10;;;;;;;42.30;11.91;99476.03;7629742;32;40854;-78
2022/08/05 12:39:56;;;;;;;2.28;2.00;;;;;;;42.57;11.97;99469.94;7632564;32;38708;-78
2022/08/05 12:44:25;;;;;;;5.95;1.95;;;;;;;42.58;11.44;99462.88;7633322;32;37092;-76
2022/08/05 12:48:56;;;;;;;7.50;2.22;;;;;;;42.31;10.97;99457.56;7620633;32;39623;-77
2022/08/05 12:53:15;;;;;;;3.35;2.03;;;;;;;41.77;11.62;99467.16;7633259;32;40119;-78
2022/08/05 12:57:36;;;;;;;4.40;2.20;;;;;;;41.84;11.34;99474.56;7632961;32;38829;-77
2022/08/05 13:02:15;;;;;;;4.60;2.03;;;;;;;42.26;11.88;99459.06;7631944;32;37204;-79
2022/08/05 13:06:31;;;;;;;5.18;2.15;;;;;;;42.06;12.13;99456.16;7632204;32;40119;-78
2022/08/05 13:10:48;;;;;;;6.93;2.20;;;;;;;42.47;11.64;99442.69;7618161;32;39719;-77
2022/08/05 13:15:08;;;;;;;3.97;1.90;;;;;;;42.85;11.31;99446.53;7632639;32;38147;-77
2022/08/05 13:19:32;;;;;;;4.78;2.28;;;;;;;42.96;11.40;99434.44;7632686;32;37949;-77
2022/08/05 13:24:07;;;;;;;4.00;2.15;;;;;;;42.44;11.46;99422.84;7635036;32;40231;-78
2022/08/05 13:28:23;;;;;;;4.87;2.08;;;;;;;42.57;11.82;99421.22;7630376;32;41229;-78
2022/08/05 13:32:39;;;;;;;5.62;2.33;;;;;;;42.85;11.07;99412.16;7632671;32;37974;-78
2022/08/05 13:37:05;;;;;;;5.62;2.08;;;;;;;42.50;11.06;99415.91;7632451;32;37980;-78
2022/08/05 13:41:22;;;;;;;2.95;2.20;;;;;;;43.22;10.99;99411.47;7632888;32;39040;-77
2022/08/05 13:45:50;;;;;;;3.83;2.30;;;;;;;43.61;10.73;99402.44;7632531;32;40156;-78
2022/08/05 13:50:06;;;;;;;3.35;2.30;;;;;;;43.15;10.95;99400.47;7631613;32;37990;-78
2022/08/05 13:54:29;;;;;;;4.95;2.12;;;;;;;43.53;10.29;99407.06;7632412;32;37399;-77
2022/08/05 13:58:46;;;;;;;7.70;2.22;;;;;;;43.84;10.42;99386.16;7632343;32;39001;-77
2022/08/05 14:03:08;;;;;;;5.25;2.30;;;;;;;43.55;10.39;99393.00;7631798;32;39667;-79
2022/08/05 14:07:26;;;;;;;3.33;2.05;;;;;;;43.73;10.88;99388.19;7630943;32;37840;-78
2022/08/05 14:12:03;;;;;;;5.22;1.95;;;;;;;43.93;10.40;99387.25;7629763;32;38250;-80
2022/08/05 14:16:33;;;;;;;4.82;2.10;;;;;;;43.51;10.86;99380.97;7630764;32;39446;-78
2022/08/05 14:20:49;;;;;;;5.62;2.10;;;;;;;43.51;10.58;99375.22;7618754;32;39885;-77
2022/08/05 14:25:10;;;;;;;3.65;1.73;;;;;;;43.70;10.77;99367.00;7631686;32;37936;-79
2022/08/05 14:29:36;;;;;;;3.10;2.10;;;;;;;44.02;10.62;99369.81;7632118;32;37126;-78
2022/08/05 14:33:52;;;;;;;3.58;2.00;;;;;;;44.17;9.75;99364.69;7631898;32;39431;-79
2022/08/05 14:38:15;;;;;;;2.85;2.20;;;;;;;44.02;10.00;99364.88;7631837;32;39933;-80
2022/08/05 14:42:51;;;;;;;3.25;2.37;;;;;;;43.83;10.13;99373.12;7631912;32;37931;-77
2022/08/05 14:47:06;;;;;;;4.15;2.10;;;;;;;44.33;10.36;99362.41;7631145;32;37052;-78
2022/08/05 14:51:23;;;;;;;5.95;2.20;;;;;;;44.30;10.35;99360.59;7630524;32;40289;-78
2022/08/05 14:55:45;;;;;;;5.50;1.95;;;;;;;43.88;10.36;99360.09;7606639;32;40027;-78
2022/08/05 15:00:07;;;;;;;3.87;2.33;;;;;;;44.21;10.59;99355.84;7631397;32;38711;-79
2022/08/05 15:04:25;;;;;;;2.78;1.90;;;;;;;43.97;10.32;99348.41;7631707;32;37008;-78
2022/08/05 15:08:44;;;;;;;5.85;2.42;;;;;;;43.82;11.26;99359.28;7631757;32;39090;-78
2022/08/05 15:13:18;;;;;;;8.82;2.20;;;;;;;44.10;11.10;99344.28;7630819;32;40641;-79
2022/08/05 15:17:43;;;;;;;3.80;2.00;;;;;;;44.11;10.02;99343.00;7630985;32;38041;-78
2022/08/05 15:22:07;;;;;;;6.15;2.40;;;;;;;43.40;11.18;99341.53;7630244;32;37452;-77
2022/08/05 15:26:23;;;;;;;6.25;2.35;;;;;;;43.59;10.61;99336.19;7630816;32;40509;-77
2022/08/05 15:30:47;;;;;;;3.47;2.20;;;;;;;43.07;10.67;99333.41;7630337;32;40836;-78
2022/08/05 15:35:07;;;;;;;;;;;;;;;42.66;10.84;99340.06;7630970;32;37671;-77
2022/08/05 15:39:27;;;;;;;6.82;2.47;;;;;;;42.74;10.91;99331.78;7630983;32;36720;-78
2022/08/05 15:44:03;;;;;;;10.55;2.33;;;;;;;42.92;11.18;99328.59;7629483;32;39641;-79
2022/08/05 15:48:19;;;;;;;4.68;2.45;;;;;;;42.86;11.64;99326.94;7629650;32;40116;-79
2022/08/05 15:52:36;;;;;;;4.10;2.28;;;;;;;42.91;11.00;99324.13;7629468;32;38677;-75
2022/08/05 15:57:09;;;;;;;2.65;2.05;;;;;;;42.95;11.25;99324.72;7627870;32;37107;-77
2022/08/05 16:01:29;;;;;;;5.65;2.17;;;;;;;42.82;11.59;99326.41;7630110;32;39481;-76
2022/08/05 16:05:54;;;;;;;2.92;2.00;;;;;;;42.72;10.71;99325.78;7629975;32;40038;-76
2022/08/05 16:10:10;;;;;;;5.82;2.60;;;;;;;42.48;11.60;99331.75;7629992;32;38243;-81
2022/08/05 16:14:26;;;;;;;4.85;2.28;;;;;;;42.30;11.11;99333.62;7632021;32;37126;-79
2022/08/05 16:18:42;;;;;;;4.10;2.20;;;;;;;42.05;12.38;99329.38;7633501;32;39485;-78
2022/08/05 16:23:07;;;;;;;6.40;2.60;;;;;;;41.52;12.18;99330.44;7632486;32;40045;-80
2022/08/05 16:27:25;;;;;;;5.47;2.42;;;;;;;41.46;12.26;99324.66;7632767;32;37992;-79
2022/08/05 16:32:01;;;;;;;4.10;2.30;;;;;;;41.14;12.92;99332.19;7632812;32;38432;-78
2022/08/05 16:36:19;;;;;;;4.72;2.17;;;;;;;41.42;12.29;99324.88;7633449;32;40232;-79
2022/08/05 16:40:38;;;;;;;5.18;2.15;;;;;;;41.05;12.41;99333.88;7633380;32;40898;-79
2022/08/05 16:44:55;;;;;;;5.15;2.30;;;;;;;41.02;12.46;99331.22;7633301;32;38800;-79
2022/08/05 16:49:12;;;;;;;4.65;2.37;;;;;;;40.42;12.96;99324.66;7633325;32;38054;-78
2022/08/05 16:53:29;;;;;;;4.47;2.30;;;;;;;40.34;13.38;99332.75;7633218;32;39566;-77
2022/08/05 16:57:47;;;;;;;5.60;2.17;;;;;;;40.04;13.81;99329.84;7634077;32;39357;-77
2022/08/05 17:02:15;;;;;;;6.25;2.50;;;;;;;39.89;13.40;99329.72;7633064;32;37944;-77
2022/08/05 17:06:32;;;;;;;7.53;2.42;;;;;;;39.50;13.61;99326.81;7633046;32;37085;-78
2022/08/05 17:10:49;;;;;;;7.40;2.58;;;;;;;39.51;13.99;99328.38;7633147;32;39591;-77
2022/08/05 17:15:06;;;;;;;6.65;2.20;;;;;;;39.19;14.63;99327.06;7632896;32;40026;-78
2022/08/05 17:19:23;;;;;;;3.78;2.00;;;;;;;39.08;14.61;99330.41;7632985;32;38640;-77
2022/08/05 17:23:40;;;;;;;8.85;2.90;;;;;;;38.89;14.77;99335.34;7631797;32;36988;-77
2022/08/05 17:28:16;;;;;;;5.70;2.20;;;;;;;38.38;15.96;99344.53;7606518;32;40421;-77
2022/08/05 17:32:32;;;;;;;6.47;2.58;;;;;;;37.71;16.73;99342.06;7606625;32;40870;-78
2022/08/05 17:36:49;;;;;;;3.22;2.25;;;;;;;37.51;16.99;99350.19;7606520;32;37991;-79
2022/08/05 17:41:06;;;;;;;9.10;2.90;;;;;;;37.34;16.96;99353.28;7606754;32;36870;-77
2022/08/05 17:45:43;;;;;;;3.85;2.72;;;;;;;36.79;17.57;99352.91;7606175;32;39769;-81
2022/08/05 17:49:59;;;;;;;9.38;3.05;;;;;;;36.47;17.93;99352.81;7606645;32;40069;-78
2022/08/05 17:54:25;;;;;;;6.50;2.87;;;;;;;36.01;18.11;99358.03;7606410;32;37888;-77
2022/08/05 17:58:41;;;;;;;5.10;2.87;;;;;;;35.98;18.09;99363.81;7606376;32;37113;-78
2022/08/05 18:02:59;;;;;;;6.37;3.15;;;;;;;35.71;18.16;99362.25;7631698;32;39375;-77
2022/08/05 18:07:15;;;;;;;5.72;2.80;;;;;;;35.29;18.53;99359.53;7632093;32;40159;-77
2022/08/05 18:11:31;;;;;;;7.78;2.95;;;;;;;34.96;18.78;99359.66;7631717;32;37864;-77
2022/08/05 18:15:50;;;;;;;4.87;2.87;;;;;;;34.65;19.41;99362.16;7631923;32;38023;-79
2022/08/05 18:20:06;;;;;;;6.03;3.22;;;;;;;34.57;19.96;99359.53;7627002;32;165746;-78
2022/08/05 18:24:28;;;;;;;8.30;2.60;;;;;;;34.33;20.57;99363.84;7632515;32;40856;-77
2022/08/05 18:28:44;;;;;;;5.40;2.53;;;;;;;34.21;21.08;99371.03;7632170;32;37995;-77
2022/08/05 18:33:02;;;;;;;10.25;4.07;;;;;;;33.87;21.93;99372.25;7631847;32;37840;-79
2022/08/05 18:37:20;;;;;;;8.00;3.50;;;;;;;33.58;21.52;99381.41;7630359;32;40063;-80
2022/08/05 18:41:55;;;;;;;8.57;2.95;;;;;;;33.47;21.76;99378.00;7628949;32;39420;-76
2022/08/05 18:46:22;;;;;;;6.75;2.33;;;;;;;33.27;22.91;99386.50;7629712;32;37891;-79
2022/08/05 18:55:38;;;;;;;12.93;3.15;;;;;;;32.91;23.68;99388.03;7627587;32;39654;-78
2022/08/05 18:59:54;;;;;;;5.32;3.00;;;;;;;32.76;24.55;99392.38;7629445;32;40877;-78
2022/08/05 19:04:18;;;;;;;5.05;2.75;;;;;;;32.57;24.48;99397.53;7629032;32;38797;-75
2022/08/05 19:08:39;;;;;;;9.07;2.80;;;;;;;32.32;24.82;99400.84;7630172;32;36618;-77
2022/08/05 19:12:58;;;;;;;7.18;2.90;;;;;;;31.98;25.80;99420.72;7629080;32;39354;-77
2022/08/05 19:17:17;;;;;;;7.07;2.53;;;;;;;31.70;26.51;99414.28;7627713;32;39594;-76
2022/08/05 19:21:34;;;;;;;3.10;2.47;;;;;;;31.64;26.60;99427.25;7627240;32;38701;-74
2022/08/05 19:25:50;;;;;;;7.35;3.05;;;;;;;31.77;26.12;99416.19;7629162;32;37170;-77
2022/08/05 19:30:17;;;;;;;7.95;3.08;;;;;;;31.56;26.43;99420.94;7627541;32;40129;-80
2022/08/05 19:34:40;;;;;;;15.10;3.50;;;;;;;31.59;25.65;99419.28;7628043;32;39982;-76
2022/08/05 19:39:10;;;;;;;5.60;3.20;;;;;;;31.40;26.70;99424.31;7630052;32;37690;-76
2022/08/05 19:43:32;;;;;;;4.82;2.78;;;;;;;31.16;27.37;99425.44;7627691;32;35857;-74
2022/08/05 19:48:09;;;;;;;10.30;2.90;;;;;;;31.11;27.45;99423.09;7625362;32;39688;-76
2022/08/05 19:52:30;;;;;;;6.55;3.25;;;;;;;30.92;27.64;99422.47;7627062;32;40519;-75
2022/08/05 19:56:47;;;;;;;6.85;3.62;;;;;;;30.81;27.99;99425.41;7626690;32;37896;-76
2022/08/05 20:01:04;;;;;;;8.60;2.90;;;;;;;30.77;28.12;99421.03;7628433;32;37615;-75
2022/08/05 20:05:21;;;;;;;5.37;2.90;;;;;;;30.76;28.23;99427.91;7628041;32;38939;-76
2022/08/05 20:09:40;;;;;;;3.10;2.58;;;;;;;30.57;28.72;99420.84;7628367;32;40036;-76
2022/08/05 20:14:10;;;;;;;6.15;3.05;;;;;;;30.45;29.09;99430.59;7626737;32;37986;-75
2022/08/05 20:18:34;;;;;;;7.03;2.78;;;;;;;30.41;29.18;99433.47;7626785;32;36117;-77
2022/08/05 20:22:51;;;;;;;10.35;3.22;;;;;;;30.33;29.63;99429.87;7627462;32;39578;-76
2022/08/05 20:27:07;;;;;;;6.72;2.87;;;;;;;30.24;30.05;99429.56;7628016;32;39890;-75
2022/08/05 20:31:27;;;;;;;6.70;2.90;;;;;;;30.14;30.39;99430.44;7626135;32;38454;-78
2022/08/05 20:36:03;;;;;;;7.00;3.00;;;;;;;30.23;29.74;99427.94;7627066;32;38242;-77
2022/08/05 20:40:19;;;;;;;7.32;3.10;;;;;;;30.11;30.25;99436.87;7627410;32;39322;-78
2022/08/05 20:44:36;;;;;;;5.68;2.85;;;;;;;30.10;30.28;99438.13;7627561;32;39587;-78
2022/08/05 20:48:52;;;;;;;4.95;3.28;;;;;;;29.98;30.71;99432.97;7627212;32;37952;-77
2022/08/05 20:53:09;;;;;;;5.35;3.05;;;;;;;29.77;31.21;99431.94;7629605;32;37062;-76